sensor_id;sensor_type;location;lat;lon;timestamp;temperature;humidity
28608;DHT22;15802;45.654;13.804;2023-04-15T00:01:04;9.30;99.90
28608;DHT22;15802;45.654;13.804;2023-04-15T00:03:30;9.30;99.90
28608;DHT22;15802;45.654;13.804;2023-04-15T00:05:56;9.30;99.90
28608;DHT22;15802;45.654;13.804;2023-04-15T00:08:22;9.30;99.90
28608;DHT22;15802;45.654;13.804;2023-04-15T00:10:48;9.30;99.90
28608;DHT22;15802;45.654;13.804;2023-04-15T00:13:13;9.30;99.90
28608;DHT22;15802;45.654;13.804;2023-04-15T00:15:39;9.30;99.90
28608;DHT22;15802;45.654;13.804;2023-04-15T00:18:05;9.30;99.90
28608;DHT22;15802;45.654;13.804;2023-04-15T00:20:32;9.30;99.90
28608;DHT22;15802;45.654;13.804;2023-04-15T00:22:58;9.30;99.90
28608;DHT22;15802;45.654;13.804;2023-04-15T00:25:25;9.30;99.90
28608;DHT22;15802;45.654;13.804;2023-04-15T00:27:50;9.30;99.90
28608;DHT22;15802;45.654;13.804;2023-04-15T00:30:16;9.20;99.90
28608;DHT22;15802;45.654;13.804;2023-04-15T00:32:42;9.20;99.90
28608;DHT22;15802;45.654;13.804;2023-04-15T00:35:07;9.20;99.90
28608;DHT22;15802;45.654;13.804;2023-04-15T00:37:49;9.20;99.90
28608;DHT22;15802;45.654;13.804;2023-04-15T00:40:15;9.30;99.90
28608;DHT22;15802;45.654;13.804;2023-04-15T00:42:42;9.30;99.90
28608;DHT22;15802;45.654;13.804;2023-04-15T00:45:07;9.30;99.90
28608;DHT22;15802;45.654;13.804;2023-04-15T00:47:34;9.30;99.90
28608;DHT22;15802;45.654;13.804;2023-04-15T00:49:59;9.30;99.90
28608;DHT22;15802;45.654;13.804;2023-04-15T00:52:25;9.30;99.90
28608;DHT22;15802;45.654;13.804;2023-04-15T00:54:51;9.30;99.90
28608;DHT22;15802;45.654;13.804;2023-04-15T00:57:18;9.30;99.90
28608;DHT22;15802;45.654;13.804;2023-04-15T00:59:43;9.40;99.90
28608;DHT22;15802;45.654;13.804;2023-04-15T01:02:09;9.40;99.90
28608;DHT22;15802;45.654;13.804;2023-04-15T01:04:34;9.40;99.90
28608;DHT22;15802;45.654;13.804;2023-04-15T01:07:01;9.40;99.90
28608;DHT22;15802;45.654;13.804;2023-04-15T01:09:26;9.40;99.90
28608;DHT22;15802;45.654;13.804;2023-04-15T01:11:52;9.30;99.90
28608;DHT22;15802;45.654;13.804;2023-04-15T01:14:18;9.30;99.90
28608;DHT22;15802;45.654;13.804;2023-04-15T01:16:43;9.20;99.90
28608;DHT22;15802;45.654;13.804;2023-04-15T01:19:10;9.20;99.90
28608;DHT22;15802;45.654;13.804;2023-04-15T01:21:36;9.20;99.90
28608;DHT22;15802;45.654;13.804;2023-04-15T01:24:08;9.20;99.90
28608;DHT22;15802;45.654;13.804;2023-04-15T01:26:38;9.20;99.90
28608;DHT22;15802;45.654;13.804;2023-04-15T01:29:04;9.20;99.90
28608;DHT22;15802;45.654;13.804;2023-04-15T01:31:29;9.20;99.90
28608;DHT22;15802;45.654;13.804;2023-04-15T01:33:58;9.20;99.90
28608;DHT22;15802;45.654;13.804;2023-04-15T01:36:24;9.10;99.90
28608;DHT22;15802;45.654;13.804;2023-04-15T01:38:49;9.10;99.90
28608;DHT22;15802;45.654;13.804;2023-04-15T01:41:15;9.10;99.90
28608;DHT22;15802;45.654;13.804;2023-04-15T01:43:41;9.10;99.90
28608;DHT22;15802;45.654;13.804;2023-04-15T01:46:09;9.10;99.90
28608;DHT22;15802;45.654;13.804;2023-04-15T01:48:35;9.10;99.90
28608;DHT22;15802;45.654;13.804;2023-04-15T01:51:01;9.00;99.90
28608;DHT22;15802;45.654;13.804;2023-04-15T01:53:27;9.10;99.90
28608;DHT22;15802;45.654;13.804;2023-04-15T01:55:53;9.00;99.90
28608;DHT22;15802;45.654;13.804;2023-04-15T01:58:19;9.10;99.90
28608;DHT22;15802;45.654;13.804;2023-04-15T02:00:46;9.00;99.90
28608;DHT22;15802;45.654;13.804;2023-04-15T02:03:12;9.00;99.90
28608;DHT22;15802;45.654;13.804;2023-04-15T02:05:37;9.00;99.90
28608;DHT22;15802;45.654;13.804;2023-04-15T02:08:04;9.00;99.90
28608;DHT22;15802;45.654;13.804;2023-04-15T02:10:30;9.00;99.90
28608;DHT22;15802;45.654;13.804;2023-04-15T02:12:56;9.00;99.90
28608;DHT22;15802;45.654;13.804;2023-04-15T02:15:21;9.00;99.90
28608;DHT22;15802;45.654;13.804;2023-04-15T02:17:47;9.10;99.90
28608;DHT22;15802;45.654;13.804;2023-04-15T02:20:15;9.00;99.90
28608;DHT22;15802;45.654;13.804;2023-04-15T02:22:42;9.00;99.90
28608;DHT22;15802;45.654;13.804;2023-04-15T02:25:08;9.00;99.90
28608;DHT22;15802;45.654;13.804;2023-04-15T02:27:34;8.90;99.90
28608;DHT22;15802;45.654;13.804;2023-04-15T02:30:00;9.00;99.90
28608;DHT22;15802;45.654;13.804;2023-04-15T02:32:26;9.00;99.90
28608;DHT22;15802;45.654;13.804;2023-04-15T02:34:53;9.00;99.90
28608;DHT22;15802;45.654;13.804;2023-04-15T02:37:18;9.00;99.90
28608;DHT22;15802;45.654;13.804;2023-04-15T02:39:44;9.00;99.90
28608;DHT22;15802;45.654;13.804;2023-04-15T02:42:10;9.00;99.90
28608;DHT22;15802;45.654;13.804;2023-04-15T02:44:37;8.90;99.90
28608;DHT22;15802;45.654;13.804;2023-04-15T02:47:03;9.00;99.90
28608;DHT22;15802;45.654;13.804;2023-04-15T02:49:31;9.00;99.90
28608;DHT22;15802;45.654;13.804;2023-04-15T02:51:57;9.00;99.90
28608;DHT22;15802;45.654;13.804;2023-04-15T02:54:24;9.00;99.90
28608;DHT22;15802;45.654;13.804;2023-04-15T02:56:53;9.00;99.90
28608;DHT22;15802;45.654;13.804;2023-04-15T02:59:20;9.00;99.90
28608;DHT22;15802;45.654;13.804;2023-04-15T03:01:46;9.00;99.90
28608;DHT22;15802;45.654;13.804;2023-04-15T03:04:12;8.90;99.90
28608;DHT22;15802;45.654;13.804;2023-04-15T03:06:38;8.90;99.90
28608;DHT22;15802;45.654;13.804;2023-04-15T03:09:04;8.90;99.90
28608;DHT22;15802;45.654;13.804;2023-04-15T03:11:30;9.00;99.90
28608;DHT22;15802;45.654;13.804;2023-04-15T03:13:56;9.10;99.90
28608;DHT22;15802;45.654;13.804;2023-04-15T03:16:21;9.10;99.90
28608;DHT22;15802;45.654;13.804;2023-04-15T03:18:47;9.10;99.90
28608;DHT22;15802;45.654;13.804;2023-04-15T03:21:13;9.10;99.90
28608;DHT22;15802;45.654;13.804;2023-04-15T03:23:38;9.10;99.90
28608;DHT22;15802;45.654;13.804;2023-04-15T03:26:04;9.10;99.90
28608;DHT22;15802;45.654;13.804;2023-04-15T03:28:30;9.10;99.90
28608;DHT22;15802;45.654;13.804;2023-04-15T03:31:00;9.20;99.90
28608;DHT22;15802;45.654;13.804;2023-04-15T03:33:25;9.30;99.90
28608;DHT22;15802;45.654;13.804;2023-04-15T03:35:51;9.30;99.90
28608;DHT22;15802;45.654;13.804;2023-04-15T03:38:17;9.30;99.90
28608;DHT22;15802;45.654;13.804;2023-04-15T03:40:44;9.30;99.90
28608;DHT22;15802;45.654;13.804;2023-04-15T03:43:10;9.30;99.90
28608;DHT22;15802;45.654;13.804;2023-04-15T03:45:36;9.30;99.90
28608;DHT22;15802;45.654;13.804;2023-04-15T03:48:02;9.30;99.90
28608;DHT22;15802;45.654;13.804;2023-04-15T03:50:28;9.30;99.90
28608;DHT22;15802;45.654;13.804;2023-04-15T03:52:55;9.30;99.90
28608;DHT22;15802;45.654;13.804;2023-04-15T03:55:20;9.30;99.90
28608;DHT22;15802;45.654;13.804;2023-04-15T03:57:46;9.20;99.90
28608;DHT22;15802;45.654;13.804;2023-04-15T04:00:12;9.10;99.90
28608;DHT22;15802;45.654;13.804;2023-04-15T04:02:38;9.10;99.90
28608;DHT22;15802;45.654;13.804;2023-04-15T04:05:03;9.10;99.90
28608;DHT22;15802;45.654;13.804;2023-04-15T04:07:29;9.10;99.90
28608;DHT22;15802;45.654;13.804;2023-04-15T04:09:56;9.20;99.90
28608;DHT22;15802;45.654;13.804;2023-04-15T04:12:21;9.20;99.90
28608;DHT22;15802;45.654;13.804;2023-04-15T04:14:47;9.10;99.90
28608;DHT22;15802;45.654;13.804;2023-04-15T04:17:13;9.10;99.90
28608;DHT22;15802;45.654;13.804;2023-04-15T04:19:38;9.00;99.90
28608;DHT22;15802;45.654;13.804;2023-04-15T04:22:04;9.00;99.90
28608;DHT22;15802;45.654;13.804;2023-04-15T04:24:30;9.00;99.90
28608;DHT22;15802;45.654;13.804;2023-04-15T04:26:56;9.00;99.90
28608;DHT22;15802;45.654;13.804;2023-04-15T04:29:22;9.10;99.90
28608;DHT22;15802;45.654;13.804;2023-04-15T04:31:48;9.10;99.90
28608;DHT22;15802;45.654;13.804;2023-04-15T04:34:14;9.10;99.90
28608;DHT22;15802;45.654;13.804;2023-04-15T04:36:39;9.10;99.90
28608;DHT22;15802;45.654;13.804;2023-04-15T04:39:05;9.10;99.90
28608;DHT22;15802;45.654;13.804;2023-04-15T04:41:31;9.10;99.90
28608;DHT22;15802;45.654;13.804;2023-04-15T04:43:57;9.10;99.90
28608;DHT22;15802;45.654;13.804;2023-04-15T04:46:22;9.00;99.90
28608;DHT22;15802;45.654;13.804;2023-04-15T04:48:50;9.10;99.90
28608;DHT22;15802;45.654;13.804;2023-04-15T04:51:17;9.00;99.90
28608;DHT22;15802;45.654;13.804;2023-04-15T04:53:43;9.00;99.90
28608;DHT22;15802;45.654;13.804;2023-04-15T04:56:09;9.00;99.90
28608;DHT22;15802;45.654;13.804;2023-04-15T04:58:34;9.10;99.90
28608;DHT22;15802;45.654;13.804;2023-04-15T05:01:00;9.00;99.90
28608;DHT22;15802;45.654;13.804;2023-04-15T05:03:27;9.10;99.90
28608;DHT22;15802;45.654;13.804;2023-04-15T05:05:53;9.10;99.90
28608;DHT22;15802;45.654;13.804;2023-04-15T05:08:21;9.10;99.90
28608;DHT22;15802;45.654;13.804;2023-04-15T05:10:47;9.10;99.90
28608;DHT22;15802;45.654;13.804;2023-04-15T05:13:13;9.10;99.90
28608;DHT22;15802;45.654;13.804;2023-04-15T05:15:38;9.10;99.90
28608;DHT22;15802;45.654;13.804;2023-04-15T05:18:05;9.20;99.90
28608;DHT22;15802;45.654;13.804;2023-04-15T05:20:31;9.20;99.90
28608;DHT22;15802;45.654;13.804;2023-04-15T05:22:57;9.20;99.90
28608;DHT22;15802;45.654;13.804;2023-04-15T05:25:22;9.20;99.90
28608;DHT22;15802;45.654;13.804;2023-04-15T05:27:57;9.30;99.90
28608;DHT22;15802;45.654;13.804;2023-04-15T05:30:23;9.30;99.90
28608;DHT22;15802;45.654;13.804;2023-04-15T05:32:49;9.30;99.90
28608;DHT22;15802;45.654;13.804;2023-04-15T05:35:14;9.40;99.90
28608;DHT22;15802;45.654;13.804;2023-04-15T05:37:43;9.50;99.90
28608;DHT22;15802;45.654;13.804;2023-04-15T05:40:09;9.50;99.90
28608;DHT22;15802;45.654;13.804;2023-04-15T05:42:41;9.50;99.90
28608;DHT22;15802;45.654;13.804;2023-04-15T05:45:07;9.60;99.90
28608;DHT22;15802;45.654;13.804;2023-04-15T05:47:34;9.60;99.90
28608;DHT22;15802;45.654;13.804;2023-04-15T05:50:00;9.60;99.90
28608;DHT22;15802;45.654;13.804;2023-04-15T05:52:26;9.70;99.90
28608;DHT22;15802;45.654;13.804;2023-04-15T05:54:52;9.80;99.90
28608;DHT22;15802;45.654;13.804;2023-04-15T05:57:17;9.90;99.90
28608;DHT22;15802;45.654;13.804;2023-04-15T05:59:45;9.90;99.90
28608;DHT22;15802;45.654;13.804;2023-04-15T06:02:11;10.00;99.90
28608;DHT22;15802;45.654;13.804;2023-04-15T06:04:37;10.20;99.90
28608;DHT22;15802;45.654;13.804;2023-04-15T06:07:03;10.30;99.90
28608;DHT22;15802;45.654;13.804;2023-04-15T06:09:29;10.50;99.90
28608;DHT22;15802;45.654;13.804;2023-04-15T06:11:55;10.70;99.90
28608;DHT22;15802;45.654;13.804;2023-04-15T06:14:24;10.80;99.90
28608;DHT22;15802;45.654;13.804;2023-04-15T06:16:49;10.80;99.90
28608;DHT22;15802;45.654;13.804;2023-04-15T06:19:15;11.00;99.90
28608;DHT22;15802;45.654;13.804;2023-04-15T06:21:41;11.00;99.90
28608;DHT22;15802;45.654;13.804;2023-04-15T06:24:07;11.20;99.90
28608;DHT22;15802;45.654;13.804;2023-04-15T06:26:32;11.20;99.90
28608;DHT22;15802;45.654;13.804;2023-04-15T06:28:58;11.30;99.90
28608;DHT22;15802;45.654;13.804;2023-04-15T06:31:27;11.40;99.90
28608;DHT22;15802;45.654;13.804;2023-04-15T06:33:52;11.40;99.90
28608;DHT22;15802;45.654;13.804;2023-04-15T06:36:18;11.50;99.90
28608;DHT22;15802;45.654;13.804;2023-04-15T06:38:44;11.50;99.90
28608;DHT22;15802;45.654;13.804;2023-04-15T06:41:09;11.60;99.90
28608;DHT22;15802;45.654;13.804;2023-04-15T06:43:38;11.70;99.90
28608;DHT22;15802;45.654;13.804;2023-04-15T06:46:04;11.70;99.90
28608;DHT22;15802;45.654;13.804;2023-04-15T06:48:35;11.80;99.90
28608;DHT22;15802;45.654;13.804;2023-04-15T06:51:01;11.80;99.90
28608;DHT22;15802;45.654;13.804;2023-04-15T06:53:28;11.80;99.90
28608;DHT22;15802;45.654;13.804;2023-04-15T06:55:54;11.90;99.90
28608;DHT22;15802;45.654;13.804;2023-04-15T06:58:20;11.90;99.90
28608;DHT22;15802;45.654;13.804;2023-04-15T07:00:48;12.00;99.90
28608;DHT22;15802;45.654;13.804;2023-04-15T07:03:14;12.10;99.90
28608;DHT22;15802;45.654;13.804;2023-04-15T07:05:39;12.20;99.90
28608;DHT22;15802;45.654;13.804;2023-04-15T07:08:07;12.40;99.90
28608;DHT22;15802;45.654;13.804;2023-04-15T07:10:33;12.40;99.90
28608;DHT22;15802;45.654;13.804;2023-04-15T07:12:59;12.40;99.90
28608;DHT22;15802;45.654;13.804;2023-04-15T07:15:26;12.50;99.90
28608;DHT22;15802;45.654;13.804;2023-04-15T07:17:51;12.40;99.90
28608;DHT22;15802;45.654;13.804;2023-04-15T07:20:20;12.50;99.90
28608;DHT22;15802;45.654;13.804;2023-04-15T07:22:46;12.60;99.90
28608;DHT22;15802;45.654;13.804;2023-04-15T07:25:12;12.70;99.90
28608;DHT22;15802;45.654;13.804;2023-04-15T07:27:40;12.60;99.90
28608;DHT22;15802;45.654;13.804;2023-04-15T07:30:06;12.70;99.90
28608;DHT22;15802;45.654;13.804;2023-04-15T07:32:31;12.70;99.90
28608;DHT22;15802;45.654;13.804;2023-04-15T07:34:57;12.80;99.90
28608;DHT22;15802;45.654;13.804;2023-04-15T07:37:23;12.80;99.90
28608;DHT22;15802;45.654;13.804;2023-04-15T07:39:49;12.80;99.90
28608;DHT22;15802;45.654;13.804;2023-04-15T07:42:17;13.00;99.90
28608;DHT22;15802;45.654;13.804;2023-04-15T07:44:43;13.10;99.90
28608;DHT22;15802;45.654;13.804;2023-04-15T07:47:08;13.10;99.90
28608;DHT22;15802;45.654;13.804;2023-04-15T07:49:37;13.20;99.90
28608;DHT22;15802;45.654;13.804;2023-04-15T07:52:03;13.20;99.90
28608;DHT22;15802;45.654;13.804;2023-04-15T07:54:29;13.30;99.90
28608;DHT22;15802;45.654;13.804;2023-04-15T07:56:55;13.40;99.90
28608;DHT22;15802;45.654;13.804;2023-04-15T07:59:21;13.40;99.90
28608;DHT22;15802;45.654;13.804;2023-04-15T08:01:47;13.50;99.90
28608;DHT22;15802;45.654;13.804;2023-04-15T08:04:18;13.60;99.90
28608;DHT22;15802;45.654;13.804;2023-04-15T08:06:43;13.60;99.90
28608;DHT22;15802;45.654;13.804;2023-04-15T08:09:09;13.60;99.90
28608;DHT22;15802;45.654;13.804;2023-04-15T08:11:35;13.60;99.90
28608;DHT22;15802;45.654;13.804;2023-04-15T08:14:01;13.60;99.90
28608;DHT22;15802;45.654;13.804;2023-04-15T08:16:30;13.70;99.90
28608;DHT22;15802;45.654;13.804;2023-04-15T08:18:56;13.70;99.90
28608;DHT22;15802;45.654;13.804;2023-04-15T08:21:24;13.70;99.90
28608;DHT22;15802;45.654;13.804;2023-04-15T08:23:51;13.80;99.90
28608;DHT22;15802;45.654;13.804;2023-04-15T08:26:17;13.90;99.90
28608;DHT22;15802;45.654;13.804;2023-04-15T08:28:43;13.90;99.90
28608;DHT22;15802;45.654;13.804;2023-04-15T08:31:09;13.90;99.90
28608;DHT22;15802;45.654;13.804;2023-04-15T08:33:35;13.90;99.90
28608;DHT22;15802;45.654;13.804;2023-04-15T08:36:01;13.90;99.90
28608;DHT22;15802;45.654;13.804;2023-04-15T08:38:27;13.90;99.90
28608;DHT22;15802;45.654;13.804;2023-04-15T08:40:55;13.90;99.90
28608;DHT22;15802;45.654;13.804;2023-04-15T08:45:53;14.10;99.90
28608;DHT22;15802;45.654;13.804;2023-04-15T08:48:19;14.20;99.90
28608;DHT22;15802;45.654;13.804;2023-04-15T08:50:54;14.30;99.90
28608;DHT22;15802;45.654;13.804;2023-04-15T08:53:21;14.40;99.90
28608;DHT22;15802;45.654;13.804;2023-04-15T08:55:50;14.40;99.90
28608;DHT22;15802;45.654;13.804;2023-04-15T09:00:48;14.40;99.90
28608;DHT22;15802;45.654;13.804;2023-04-15T09:03:13;14.40;99.90
28608;DHT22;15802;45.654;13.804;2023-04-15T09:05:39;14.50;99.90
28608;DHT22;15802;45.654;13.804;2023-04-15T09:08:05;14.50;99.90
28608;DHT22;15802;45.654;13.804;2023-04-15T09:10:31;14.60;99.90
28608;DHT22;15802;45.654;13.804;2023-04-15T09:13:00;14.60;99.90
28608;DHT22;15802;45.654;13.804;2023-04-15T09:15:26;14.70;99.90
28608;DHT22;15802;45.654;13.804;2023-04-15T09:17:53;14.70;99.90
28608;DHT22;15802;45.654;13.804;2023-04-15T09:20:19;14.80;99.90
28608;DHT22;15802;45.654;13.804;2023-04-15T09:22:46;14.90;99.90
28608;DHT22;15802;45.654;13.804;2023-04-15T09:25:28;14.90;99.90
28608;DHT22;15802;45.654;13.804;2023-04-15T09:27:57;15.10;99.90
28608;DHT22;15802;45.654;13.804;2023-04-15T09:30:24;15.00;99.90
28608;DHT22;15802;45.654;13.804;2023-04-15T09:32:57;15.10;99.90
28608;DHT22;15802;45.654;13.804;2023-04-15T09:35:24;15.20;99.90
28608;DHT22;15802;45.654;13.804;2023-04-15T09:37:53;15.00;99.90
28608;DHT22;15802;45.654;13.804;2023-04-15T09:40:41;15.10;99.90
28608;DHT22;15802;45.654;13.804;2023-04-15T09:43:08;15.20;99.90
28608;DHT22;15802;45.654;13.804;2023-04-15T09:45:45;15.40;99.90
28608;DHT22;15802;45.654;13.804;2023-04-15T09:48:15;15.60;99.90
28608;DHT22;15802;45.654;13.804;2023-04-15T09:50:42;15.70;99.90
28608;DHT22;15802;45.654;13.804;2023-04-15T09:53:09;15.80;99.90
28608;DHT22;15802;45.654;13.804;2023-04-15T09:55:36;16.00;99.90
28608;DHT22;15802;45.654;13.804;2023-04-15T09:58:01;16.30;99.90
28608;DHT22;15802;45.654;13.804;2023-04-15T10:00:28;16.40;99.90
28608;DHT22;15802;45.654;13.804;2023-04-15T10:02:54;16.40;99.90
28608;DHT22;15802;45.654;13.804;2023-04-15T10:05:20;16.30;99.90
28608;DHT22;15802;45.654;13.804;2023-04-15T10:07:47;16.30;99.90
28608;DHT22;15802;45.654;13.804;2023-04-15T10:10:14;16.30;99.90
28608;DHT22;15802;45.654;13.804;2023-04-15T10:12:48;16.30;99.90
28608;DHT22;15802;45.654;13.804;2023-04-15T10:15:15;16.10;99.90
28608;DHT22;15802;45.654;13.804;2023-04-15T10:17:44;16.10;99.90
28608;DHT22;15802;45.654;13.804;2023-04-15T10:20:12;15.90;99.90
28608;DHT22;15802;45.654;13.804;2023-04-15T10:22:39;16.00;99.90
28608;DHT22;15802;45.654;13.804;2023-04-15T10:25:07;15.70;99.90
28608;DHT22;15802;45.654;13.804;2023-04-15T10:27:34;15.60;99.90
28608;DHT22;15802;45.654;13.804;2023-04-15T10:30:00;15.50;99.90
28608;DHT22;15802;45.654;13.804;2023-04-15T10:32:28;15.40;99.90
28608;DHT22;15802;45.654;13.804;2023-04-15T10:34:57;15.50;99.90
28608;DHT22;15802;45.654;13.804;2023-04-15T10:37:34;15.50;99.90
28608;DHT22;15802;45.654;13.804;2023-04-15T10:40:00;15.40;99.90
28608;DHT22;15802;45.654;13.804;2023-04-15T10:42:32;15.40;99.90
28608;DHT22;15802;45.654;13.804;2023-04-15T10:44:58;15.40;99.90
28608;DHT22;15802;45.654;13.804;2023-04-15T10:47:24;15.30;99.90
28608;DHT22;15802;45.654;13.804;2023-04-15T10:49:54;15.30;99.90
28608;DHT22;15802;45.654;13.804;2023-04-15T10:52:22;15.10;99.90
28608;DHT22;15802;45.654;13.804;2023-04-15T10:54:48;15.20;99.90
28608;DHT22;15802;45.654;13.804;2023-04-15T10:57:15;15.30;99.90
28608;DHT22;15802;45.654;13.804;2023-04-15T10:59:58;15.50;99.90
28608;DHT22;15802;45.654;13.804;2023-04-15T11:02:42;15.80;99.90
28608;DHT22;15802;45.654;13.804;2023-04-15T11:05:12;15.90;99.90
28608;DHT22;15802;45.654;13.804;2023-04-15T11:07:54;16.00;99.90
28608;DHT22;15802;45.654;13.804;2023-04-15T11:13:14;15.90;99.90
28608;DHT22;15802;45.654;13.804;2023-04-15T11:15:41;15.70;99.90
28608;DHT22;15802;45.654;13.804;2023-04-15T11:18:24;15.40;99.90
28608;DHT22;15802;45.654;13.804;2023-04-15T11:20:50;15.40;99.90
28608;DHT22;15802;45.654;13.804;2023-04-15T11:23:17;15.60;99.90
28608;DHT22;15802;45.654;13.804;2023-04-15T11:25:46;15.70;99.90
28608;DHT22;15802;45.654;13.804;2023-04-15T11:28:13;15.70;99.90
28608;DHT22;15802;45.654;13.804;2023-04-15T11:30:39;15.80;99.90
28608;DHT22;15802;45.654;13.804;2023-04-15T11:33:05;15.80;99.90
28608;DHT22;15802;45.654;13.804;2023-04-15T11:35:32;15.60;99.90
28608;DHT22;15802;45.654;13.804;2023-04-15T11:37:57;15.50;99.90
28608;DHT22;15802;45.654;13.804;2023-04-15T11:40:27;15.40;99.90
28608;DHT22;15802;45.654;13.804;2023-04-15T11:43:10;15.40;99.90
28608;DHT22;15802;45.654;13.804;2023-04-15T11:45:47;15.40;99.90
28608;DHT22;15802;45.654;13.804;2023-04-15T11:48:13;15.40;99.90
28608;DHT22;15802;45.654;13.804;2023-04-15T11:50:39;15.10;99.90
28608;DHT22;15802;45.654;13.804;2023-04-15T11:53:07;15.10;99.90
28608;DHT22;15802;45.654;13.804;2023-04-15T11:55:49;14.90;99.90
28608;DHT22;15802;45.654;13.804;2023-04-15T11:58:18;14.80;99.90
28608;DHT22;15802;45.654;13.804;2023-04-15T12:00:47;14.70;99.90
28608;DHT22;15802;45.654;13.804;2023-04-15T12:03:16;14.80;99.90
28608;DHT22;15802;45.654;13.804;2023-04-15T12:11:13;14.50;99.90
28608;DHT22;15802;45.654;13.804;2023-04-15T12:13:42;14.30;99.90
28608;DHT22;15802;45.654;13.804;2023-04-15T12:16:08;14.10;99.90
28608;DHT22;15802;45.654;13.804;2023-04-15T12:18:36;14.00;99.90
28608;DHT22;15802;45.654;13.804;2023-04-15T12:21:08;14.00;99.90
28608;DHT22;15802;45.654;13.804;2023-04-15T12:23:37;14.00;99.90
28608;DHT22;15802;45.654;13.804;2023-04-15T12:26:04;14.00;99.90
28608;DHT22;15802;45.654;13.804;2023-04-15T12:28:30;14.00;99.90
28608;DHT22;15802;45.654;13.804;2023-04-15T12:30:56;14.20;99.90
28608;DHT22;15802;45.654;13.804;2023-04-15T12:33:22;14.30;99.90
28608;DHT22;15802;45.654;13.804;2023-04-15T12:35:51;14.10;99.90
28608;DHT22;15802;45.654;13.804;2023-04-15T12:38:16;14.10;99.90
28608;DHT22;15802;45.654;13.804;2023-04-15T12:40:42;14.30;99.90
28608;DHT22;15802;45.654;13.804;2023-04-15T12:43:08;14.60;99.90
28608;DHT22;15802;45.654;13.804;2023-04-15T12:45:33;14.70;99.90
28608;DHT22;15802;45.654;13.804;2023-04-15T12:48:01;14.70;99.90
28608;DHT22;15802;45.654;13.804;2023-04-15T12:50:27;15.00;99.90
28608;DHT22;15802;45.654;13.804;2023-04-15T12:52:53;14.90;99.90
28608;DHT22;15802;45.654;13.804;2023-04-15T12:55:18;15.00;99.90
28608;DHT22;15802;45.654;13.804;2023-04-15T12:57:44;15.20;99.90
28608;DHT22;15802;45.654;13.804;2023-04-15T13:00:10;15.20;99.90
28608;DHT22;15802;45.654;13.804;2023-04-15T13:02:38;15.40;99.90
28608;DHT22;15802;45.654;13.804;2023-04-15T13:05:07;15.70;99.90
28608;DHT22;15802;45.654;13.804;2023-04-15T13:07:32;15.90;99.90
28608;DHT22;15802;45.654;13.804;2023-04-15T13:10:01;15.80;99.90
28608;DHT22;15802;45.654;13.804;2023-04-15T13:12:29;15.80;99.90
28608;DHT22;15802;45.654;13.804;2023-04-15T13:14:55;15.80;99.90
28608;DHT22;15802;45.654;13.804;2023-04-15T13:17:24;15.70;99.90
28608;DHT22;15802;45.654;13.804;2023-04-15T13:19:50;15.50;99.90
28608;DHT22;15802;45.654;13.804;2023-04-15T13:22:16;15.40;99.90
28608;DHT22;15802;45.654;13.804;2023-04-15T13:24:41;15.50;99.90
28608;DHT22;15802;45.654;13.804;2023-04-15T13:27:07;15.90;99.90
28608;DHT22;15802;45.654;13.804;2023-04-15T13:29:33;16.10;99.90
28608;DHT22;15802;45.654;13.804;2023-04-15T13:31:58;16.10;99.90
28608;DHT22;15802;45.654;13.804;2023-04-15T13:34:25;16.00;99.90
28608;DHT22;15802;45.654;13.804;2023-04-15T13:36:51;16.00;99.90
28608;DHT22;15802;45.654;13.804;2023-04-15T13:39:17;15.90;99.90
28608;DHT22;15802;45.654;13.804;2023-04-15T13:41:43;15.70;99.90
28608;DHT22;15802;45.654;13.804;2023-04-15T13:44:08;15.80;99.90
28608;DHT22;15802;45.654;13.804;2023-04-15T13:46:34;16.00;99.90
28608;DHT22;15802;45.654;13.804;2023-04-15T13:49:00;15.70;99.90
28608;DHT22;15802;45.654;13.804;2023-04-15T13:51:28;15.70;99.90
28608;DHT22;15802;45.654;13.804;2023-04-15T13:53:54;15.70;99.90
28608;DHT22;15802;45.654;13.804;2023-04-15T13:56:21;15.80;99.90
28608;DHT22;15802;45.654;13.804;2023-04-15T13:58:46;16.00;99.90
28608;DHT22;15802;45.654;13.804;2023-04-15T14:01:12;16.10;99.90
28608;DHT22;15802;45.654;13.804;2023-04-15T14:03:38;16.00;99.90
28608;DHT22;15802;45.654;13.804;2023-04-15T14:06:04;16.00;99.90
28608;DHT22;15802;45.654;13.804;2023-04-15T14:08:30;16.20;99.90
28608;DHT22;15802;45.654;13.804;2023-04-15T14:11:03;16.00;99.90
28608;DHT22;15802;45.654;13.804;2023-04-15T14:13:28;16.00;99.90
28608;DHT22;15802;45.654;13.804;2023-04-15T14:15:55;15.60;99.90
28608;DHT22;15802;45.654;13.804;2023-04-15T14:18:21;15.10;99.90
28608;DHT22;15802;45.654;13.804;2023-04-15T14:20:47;14.40;99.90
28608;DHT22;15802;45.654;13.804;2023-04-15T14:23:12;13.90;99.90
28608;DHT22;15802;45.654;13.804;2023-04-15T14:25:38;13.80;99.90
28608;DHT22;15802;45.654;13.804;2023-04-15T14:28:04;13.80;99.90
28608;DHT22;15802;45.654;13.804;2023-04-15T14:30:29;13.60;99.90
28608;DHT22;15802;45.654;13.804;2023-04-15T14:32:55;13.50;99.90
28608;DHT22;15802;45.654;13.804;2023-04-15T14:35:21;13.40;99.90
28608;DHT22;15802;45.654;13.804;2023-04-15T14:37:52;13.20;99.90
28608;DHT22;15802;45.654;13.804;2023-04-15T14:40:18;12.80;99.90
28608;DHT22;15802;45.654;13.804;2023-04-15T14:42:44;12.70;99.90
28608;DHT22;15802;45.654;13.804;2023-04-15T14:45:09;12.60;99.90
28608;DHT22;15802;45.654;13.804;2023-04-15T14:47:35;12.50;99.90
28608;DHT22;15802;45.654;13.804;2023-04-15T14:50:01;12.60;99.90
28608;DHT22;15802;45.654;13.804;2023-04-15T14:52:27;12.60;99.90
28608;DHT22;15802;45.654;13.804;2023-04-15T14:54:52;12.50;99.90
28608;DHT22;15802;45.654;13.804;2023-04-15T14:57:18;12.50;99.90
28608;DHT22;15802;45.654;13.804;2023-04-15T14:59:44;12.40;99.90
28608;DHT22;15802;45.654;13.804;2023-04-15T15:02:09;12.20;99.90
28608;DHT22;15802;45.654;13.804;2023-04-15T15:04:35;12.20;99.90
28608;DHT22;15802;45.654;13.804;2023-04-15T15:07:02;12.20;99.90
28608;DHT22;15802;45.654;13.804;2023-04-15T15:09:31;12.10;99.90
28608;DHT22;15802;45.654;13.804;2023-04-15T15:11:56;12.00;99.90
28608;DHT22;15802;45.654;13.804;2023-04-15T15:14:22;11.90;99.90
28608;DHT22;15802;45.654;13.804;2023-04-15T15:16:50;11.80;99.90
28608;DHT22;15802;45.654;13.804;2023-04-15T15:19:16;11.80;99.90
28608;DHT22;15802;45.654;13.804;2023-04-15T15:21:42;11.70;99.90
28608;DHT22;15802;45.654;13.804;2023-04-15T15:24:08;11.60;99.90
28608;DHT22;15802;45.654;13.804;2023-04-15T15:26:34;11.70;99.90
28608;DHT22;15802;45.654;13.804;2023-04-15T15:28:59;11.70;99.90
28608;DHT22;15802;45.654;13.804;2023-04-15T15:31:25;11.80;99.90
28608;DHT22;15802;45.654;13.804;2023-04-15T15:33:51;11.80;99.90